Terminal Aerodrome Forecast
Issued by NWS

Home | Current Version | Previous Version | Text Only | Print | Product List | Glossary On
Versions: 1 2 3 4 5 6 7 8 9 10 11 12 13 14 15 16
573
FTUS43 KGRR 281740
TAFLAN
TAF
KLAN 281740Z 2818/2918 19013G22KT P6SM SCT050 BKN150
     FM282100 17016G26KT P6SM VCSH SCT050 OVC100
     FM290600 21014G22KT P6SM VCSH BKN080=

USA.gov is the U.S. government's official web portal to all federal, state and local government web resources and services.